sensor_id;sensor_type;location;lat;lon;timestamp;P1;durP1;ratioP1;P2;durP2;ratioP2
28353;SDS011;15603;50.878;8.036;2023-02-02T00:01:22;2.90;;;1.63;;
28353;SDS011;15603;50.878;8.036;2023-02-02T00:03:50;1.40;;;0.90;;
28353;SDS011;15603;50.878;8.036;2023-02-02T00:06:21;2.05;;;1.10;;
28353;SDS011;15603;50.878;8.036;2023-02-02T00:08:49;2.27;;;1.17;;
28353;SDS011;15603;50.878;8.036;2023-02-02T00:11:16;2.85;;;0.90;;
28353;SDS011;15603;50.878;8.036;2023-02-02T00:13:44;3.88;;;1.27;;
28353;SDS011;15603;50.878;8.036;2023-02-02T00:16:32;2.53;;;1.17;;
28353;SDS011;15603;50.878;8.036;2023-02-02T00:19:04;1.65;;;1.08;;
28353;SDS011;15603;50.878;8.036;2023-02-02T00:21:36;1.33;;;0.60;;
28353;SDS011;15603;50.878;8.036;2023-02-02T00:24:04;1.33;;;0.75;;
28353;SDS011;15603;50.878;8.036;2023-02-02T00:26:33;0.60;;;0.60;;
28353;SDS011;15603;50.878;8.036;2023-02-02T00:29:01;0.40;;;0.35;;
28353;SDS011;15603;50.878;8.036;2023-02-02T00:31:29;1.58;;;0.32;;
28353;SDS011;15603;50.878;8.036;2023-02-02T00:33:56;0.38;;;0.38;;
28353;SDS011;15603;50.878;8.036;2023-02-02T00:36:23;1.70;;;0.60;;
28353;SDS011;15603;50.878;8.036;2023-02-02T00:38:50;2.50;;;0.80;;
28353;SDS011;15603;50.878;8.036;2023-02-02T00:41:18;0.80;;;0.50;;
28353;SDS011;15603;50.878;8.036;2023-02-02T00:43:46;0.50;;;0.47;;
28353;SDS011;15603;50.878;8.036;2023-02-02T00:46:32;2.05;;;0.65;;
28353;SDS011;15603;50.878;8.036;2023-02-02T00:49:00;2.83;;;0.40;;
28353;SDS011;15603;50.878;8.036;2023-02-02T00:51:27;0.77;;;0.50;;
28353;SDS011;15603;50.878;8.036;2023-02-02T00:53:54;0.77;;;0.57;;
28353;SDS011;15603;50.878;8.036;2023-02-02T00:56:21;0.80;;;0.60;;
28353;SDS011;15603;50.878;8.036;2023-02-02T00:58:48;0.82;;;0.50;;
28353;SDS011;15603;50.878;8.036;2023-02-02T01:01:15;3.25;;;0.60;;
28353;SDS011;15603;50.878;8.036;2023-02-02T01:03:44;6.72;;;1.02;;
28353;SDS011;15603;50.878;8.036;2023-02-02T01:06:11;0.63;;;0.38;;
28353;SDS011;15603;50.878;8.036;2023-02-02T01:08:38;0.68;;;0.60;;
28353;SDS011;15603;50.878;8.036;2023-02-02T01:11:06;6.75;;;0.80;;
28353;SDS011;15603;50.878;8.036;2023-02-02T01:13:34;0.45;;;0.45;;
28353;SDS011;15603;50.878;8.036;2023-02-02T01:16:01;1.98;;;0.80;;
28353;SDS011;15603;50.878;8.036;2023-02-02T01:18:29;1.77;;;1.00;;
28353;SDS011;15603;50.878;8.036;2023-02-02T01:21:02;2.53;;;1.52;;
28353;SDS011;15603;50.878;8.036;2023-02-02T01:23:31;2.40;;;1.27;;
28353;SDS011;15603;50.878;8.036;2023-02-02T01:26:00;1.83;;;1.23;;
28353;SDS011;15603;50.878;8.036;2023-02-02T01:28:30;6.35;;;1.73;;
28353;SDS011;15603;50.878;8.036;2023-02-02T01:30:58;4.20;;;1.40;;
28353;SDS011;15603;50.878;8.036;2023-02-02T01:33:31;4.35;;;1.20;;
28353;SDS011;15603;50.878;8.036;2023-02-02T01:36:01;1.48;;;1.00;;
28353;SDS011;15603;50.878;8.036;2023-02-02T01:38:30;3.35;;;1.70;;
28353;SDS011;15603;50.878;8.036;2023-02-02T01:40:59;4.10;;;1.88;;
28353;SDS011;15603;50.878;8.036;2023-02-02T01:43:28;2.45;;;1.40;;
28353;SDS011;15603;50.878;8.036;2023-02-02T01:46:14;5.18;;;1.85;;
28353;SDS011;15603;50.878;8.036;2023-02-02T01:48:45;2.45;;;1.33;;
28353;SDS011;15603;50.878;8.036;2023-02-02T01:51:16;3.42;;;1.50;;
28353;SDS011;15603;50.878;8.036;2023-02-02T01:53:46;13.20;;;2.15;;
28353;SDS011;15603;50.878;8.036;2023-02-02T01:56:21;1.70;;;1.15;;
28353;SDS011;15603;50.878;8.036;2023-02-02T01:58:54;1.10;;;1.00;;
28353;SDS011;15603;50.878;8.036;2023-02-02T02:01:24;2.88;;;1.73;;
28353;SDS011;15603;50.878;8.036;2023-02-02T02:03:52;6.03;;;2.28;;
28353;SDS011;15603;50.878;8.036;2023-02-02T02:06:20;3.40;;;1.60;;
28353;SDS011;15603;50.878;8.036;2023-02-02T02:09:01;9.43;;;3.05;;
28353;SDS011;15603;50.878;8.036;2023-02-02T02:11:30;6.32;;;2.80;;
28353;SDS011;15603;50.878;8.036;2023-02-02T02:13:59;7.13;;;2.88;;
28353;SDS011;15603;50.878;8.036;2023-02-02T02:29:09;7.40;;;2.85;;
28353;SDS011;15603;50.878;8.036;2023-02-02T02:37:47;6.60;;;2.90;;
28353;SDS011;15603;50.878;8.036;2023-02-02T02:43:33;8.82;;;3.42;;
28353;SDS011;15603;50.878;8.036;2023-02-02T02:46:06;7.30;;;2.60;;
28353;SDS011;15603;50.878;8.036;2023-02-02T02:48:35;8.05;;;3.20;;
28353;SDS011;15603;50.878;8.036;2023-02-02T02:51:38;5.03;;;3.05;;
28353;SDS011;15603;50.878;8.036;2023-02-02T02:54:04;4.70;;;2.67;;
28353;SDS011;15603;50.878;8.036;2023-02-02T02:56:39;4.80;;;2.67;;
28353;SDS011;15603;50.878;8.036;2023-02-02T03:04:45;4.45;;;2.33;;
28353;SDS011;15603;50.878;8.036;2023-02-02T03:07:26;3.20;;;2.55;;
28353;SDS011;15603;50.878;8.036;2023-02-02T03:10:18;3.90;;;2.35;;
28353;SDS011;15603;50.878;8.036;2023-02-02T03:12:49;5.72;;;2.47;;
28353;SDS011;15603;50.878;8.036;2023-02-02T03:15:17;4.72;;;2.85;;
28353;SDS011;15603;50.878;8.036;2023-02-02T03:17:45;3.50;;;2.22;;
28353;SDS011;15603;50.878;8.036;2023-02-02T03:20:15;7.38;;;3.05;;
28353;SDS011;15603;50.878;8.036;2023-02-02T03:22:42;6.35;;;2.63;;
28353;SDS011;15603;50.878;8.036;2023-02-02T03:25:09;6.90;;;2.95;;
28353;SDS011;15603;50.878;8.036;2023-02-02T03:27:37;8.13;;;2.78;;
28353;SDS011;15603;50.878;8.036;2023-02-02T03:30:06;6.78;;;2.83;;
28353;SDS011;15603;50.878;8.036;2023-02-02T03:32:37;6.25;;;2.83;;
28353;SDS011;15603;50.878;8.036;2023-02-02T03:35:05;5.50;;;2.75;;
28353;SDS011;15603;50.878;8.036;2023-02-02T03:37:33;5.78;;;2.58;;
28353;SDS011;15603;50.878;8.036;2023-02-02T03:40:00;6.03;;;2.72;;
28353;SDS011;15603;50.878;8.036;2023-02-02T03:42:27;6.45;;;3.50;;
28353;SDS011;15603;50.878;8.036;2023-02-02T03:44:54;8.73;;;2.83;;
28353;SDS011;15603;50.878;8.036;2023-02-02T03:47:21;7.45;;;3.22;;
28353;SDS011;15603;50.878;8.036;2023-02-02T03:49:48;10.00;;;2.97;;
28353;SDS011;15603;50.878;8.036;2023-02-02T03:52:15;6.07;;;2.60;;
28353;SDS011;15603;50.878;8.036;2023-02-02T03:54:42;5.90;;;2.55;;
28353;SDS011;15603;50.878;8.036;2023-02-02T03:57:09;8.75;;;2.90;;
28353;SDS011;15603;50.878;8.036;2023-02-02T03:59:36;5.30;;;2.72;;
28353;SDS011;15603;50.878;8.036;2023-02-02T04:02:03;5.93;;;3.35;;
28353;SDS011;15603;50.878;8.036;2023-02-02T04:04:30;11.63;;;3.22;;
28353;SDS011;15603;50.878;8.036;2023-02-02T04:06:57;10.90;;;3.67;;
28353;SDS011;15603;50.878;8.036;2023-02-02T04:09:24;9.43;;;3.75;;
28353;SDS011;15603;50.878;8.036;2023-02-02T04:11:51;11.80;;;3.60;;
28353;SDS011;15603;50.878;8.036;2023-02-02T04:14:19;6.38;;;3.20;;
28353;SDS011;15603;50.878;8.036;2023-02-02T04:16:46;17.13;;;3.70;;
28353;SDS011;15603;50.878;8.036;2023-02-02T04:19:13;15.30;;;5.45;;
28353;SDS011;15603;50.878;8.036;2023-02-02T04:21:40;12.77;;;3.78;;
28353;SDS011;15603;50.878;8.036;2023-02-02T04:24:10;11.40;;;4.07;;
28353;SDS011;15603;50.878;8.036;2023-02-02T04:26:39;10.30;;;4.00;;
28353;SDS011;15603;50.878;8.036;2023-02-02T04:29:06;12.93;;;4.97;;
28353;SDS011;15603;50.878;8.036;2023-02-02T04:31:33;13.93;;;5.95;;
28353;SDS011;15603;50.878;8.036;2023-02-02T04:34:01;16.02;;;6.60;;
28353;SDS011;15603;50.878;8.036;2023-02-02T04:36:28;11.30;;;6.05;;
28353;SDS011;15603;50.878;8.036;2023-02-02T04:38:55;9.63;;;5.72;;
28353;SDS011;15603;50.878;8.036;2023-02-02T04:41:22;26.50;;;7.95;;
28353;SDS011;15603;50.878;8.036;2023-02-02T04:43:50;15.23;;;7.82;;
28353;SDS011;15603;50.878;8.036;2023-02-02T04:46:17;25.30;;;8.77;;
28353;SDS011;15603;50.878;8.036;2023-02-02T04:48:46;16.08;;;8.98;;
28353;SDS011;15603;50.878;8.036;2023-02-02T04:51:14;22.08;;;8.65;;
28353;SDS011;15603;50.878;8.036;2023-02-02T04:53:41;17.45;;;9.02;;
28353;SDS011;15603;50.878;8.036;2023-02-02T04:56:10;19.65;;;8.25;;
28353;SDS011;15603;50.878;8.036;2023-02-02T04:58:40;25.42;;;8.55;;
28353;SDS011;15603;50.878;8.036;2023-02-02T05:01:11;17.40;;;7.57;;
28353;SDS011;15603;50.878;8.036;2023-02-02T05:03:43;24.17;;;8.40;;
28353;SDS011;15603;50.878;8.036;2023-02-02T05:09:31;23.58;;;7.28;;
28353;SDS011;15603;50.878;8.036;2023-02-02T05:11:59;20.88;;;8.18;;
28353;SDS011;15603;50.878;8.036;2023-02-02T05:14:26;18.48;;;7.45;;
28353;SDS011;15603;50.878;8.036;2023-02-02T05:16:53;22.05;;;8.73;;
28353;SDS011;15603;50.878;8.036;2023-02-02T05:19:20;16.17;;;6.55;;
28353;SDS011;15603;50.878;8.036;2023-02-02T05:21:47;21.33;;;7.25;;
28353;SDS011;15603;50.878;8.036;2023-02-02T05:24:17;15.57;;;6.63;;
28353;SDS011;15603;50.878;8.036;2023-02-02T05:26:50;15.95;;;6.43;;
28353;SDS011;15603;50.878;8.036;2023-02-02T05:29:18;14.50;;;6.70;;
28353;SDS011;15603;50.878;8.036;2023-02-02T05:31:46;13.50;;;5.88;;
28353;SDS011;15603;50.878;8.036;2023-02-02T05:34:13;13.20;;;5.63;;
28353;SDS011;15603;50.878;8.036;2023-02-02T05:36:40;14.35;;;5.53;;
28353;SDS011;15603;50.878;8.036;2023-02-02T05:39:08;14.30;;;6.53;;
28353;SDS011;15603;50.878;8.036;2023-02-02T05:41:35;12.95;;;4.82;;
28353;SDS011;15603;50.878;8.036;2023-02-02T05:44:02;21.60;;;6.88;;
28353;SDS011;15603;50.878;8.036;2023-02-02T05:46:36;11.63;;;5.15;;
28353;SDS011;15603;50.878;8.036;2023-02-02T05:49:09;18.23;;;5.18;;
28353;SDS011;15603;50.878;8.036;2023-02-02T05:51:42;9.43;;;5.30;;
28353;SDS011;15603;50.878;8.036;2023-02-02T05:54:12;11.10;;;5.50;;
28353;SDS011;15603;50.878;8.036;2023-02-02T05:56:45;19.40;;;6.43;;
28353;SDS011;15603;50.878;8.036;2023-02-02T05:59:13;13.80;;;5.90;;
28353;SDS011;15603;50.878;8.036;2023-02-02T06:01:40;19.35;;;5.82;;
28353;SDS011;15603;50.878;8.036;2023-02-02T06:04:07;14.63;;;6.10;;
28353;SDS011;15603;50.878;8.036;2023-02-02T06:06:35;14.07;;;5.78;;
28353;SDS011;15603;50.878;8.036;2023-02-02T06:09:04;16.85;;;6.28;;
28353;SDS011;15603;50.878;8.036;2023-02-02T06:11:32;25.13;;;8.52;;
28353;SDS011;15603;50.878;8.036;2023-02-02T06:14:00;12.90;;;5.22;;
28353;SDS011;15603;50.878;8.036;2023-02-02T06:16:27;16.83;;;5.93;;
28353;SDS011;15603;50.878;8.036;2023-02-02T06:18:54;13.85;;;5.30;;
28353;SDS011;15603;50.878;8.036;2023-02-02T06:21:22;9.13;;;5.55;;
28353;SDS011;15603;50.878;8.036;2023-02-02T06:23:50;12.90;;;5.07;;
28353;SDS011;15603;50.878;8.036;2023-02-02T06:26:18;14.35;;;5.45;;
28353;SDS011;15603;50.878;8.036;2023-02-02T06:28:49;15.85;;;5.22;;
28353;SDS011;15603;50.878;8.036;2023-02-02T06:31:18;15.45;;;6.68;;
28353;SDS011;15603;50.878;8.036;2023-02-02T06:33:46;10.35;;;5.35;;
28353;SDS011;15603;50.878;8.036;2023-02-02T06:36:14;11.85;;;5.55;;
28353;SDS011;15603;50.878;8.036;2023-02-02T06:38:41;12.20;;;6.15;;
28353;SDS011;15603;50.878;8.036;2023-02-02T06:41:08;13.25;;;5.93;;
28353;SDS011;15603;50.878;8.036;2023-02-02T06:43:35;11.77;;;6.60;;
28353;SDS011;15603;50.878;8.036;2023-02-02T06:46:02;19.02;;;6.70;;
28353;SDS011;15603;50.878;8.036;2023-02-02T06:48:29;13.10;;;6.22;;
28353;SDS011;15603;50.878;8.036;2023-02-02T06:50:56;17.25;;;6.88;;
28353;SDS011;15603;50.878;8.036;2023-02-02T06:53:25;14.95;;;7.97;;
28353;SDS011;15603;50.878;8.036;2023-02-02T06:55:56;20.50;;;7.80;;
28353;SDS011;15603;50.878;8.036;2023-02-02T06:58:28;23.52;;;8.05;;
28353;SDS011;15603;50.878;8.036;2023-02-02T07:01:06;19.92;;;8.75;;
28353;SDS011;15603;50.878;8.036;2023-02-02T07:03:35;20.45;;;8.25;;
28353;SDS011;15603;50.878;8.036;2023-02-02T07:06:09;23.35;;;8.77;;
28353;SDS011;15603;50.878;8.036;2023-02-02T07:08:37;23.55;;;9.18;;
28353;SDS011;15603;50.878;8.036;2023-02-02T07:11:04;15.02;;;8.25;;
28353;SDS011;15603;50.878;8.036;2023-02-02T07:13:45;24.15;;;9.60;;
28353;SDS011;15603;50.878;8.036;2023-02-02T07:16:14;22.40;;;10.13;;
28353;SDS011;15603;50.878;8.036;2023-02-02T07:18:42;26.15;;;9.57;;
28353;SDS011;15603;50.878;8.036;2023-02-02T07:21:14;21.25;;;10.15;;
28353;SDS011;15603;50.878;8.036;2023-02-02T07:23:43;31.08;;;10.48;;
28353;SDS011;15603;50.878;8.036;2023-02-02T07:26:11;22.40;;;9.07;;
28353;SDS011;15603;50.878;8.036;2023-02-02T07:28:41;17.88;;;8.73;;
28353;SDS011;15603;50.878;8.036;2023-02-02T07:31:11;22.98;;;8.68;;
28353;SDS011;15603;50.878;8.036;2023-02-02T07:33:41;22.65;;;7.57;;
28353;SDS011;15603;50.878;8.036;2023-02-02T07:36:10;24.73;;;8.63;;
28353;SDS011;15603;50.878;8.036;2023-02-02T07:38:37;20.90;;;8.30;;
28353;SDS011;15603;50.878;8.036;2023-02-02T07:41:04;19.33;;;8.23;;
28353;SDS011;15603;50.878;8.036;2023-02-02T07:43:31;16.77;;;7.20;;
28353;SDS011;15603;50.878;8.036;2023-02-02T07:45:59;17.67;;;6.57;;
28353;SDS011;15603;50.878;8.036;2023-02-02T07:48:29;23.98;;;7.75;;
28353;SDS011;15603;50.878;8.036;2023-02-02T07:51:00;14.25;;;6.93;;
28353;SDS011;15603;50.878;8.036;2023-02-02T07:53:31;14.48;;;7.40;;
28353;SDS011;15603;50.878;8.036;2023-02-02T07:56:09;12.07;;;6.28;;
28353;SDS011;15603;50.878;8.036;2023-02-02T07:58:54;16.77;;;6.72;;
28353;SDS011;15603;50.878;8.036;2023-02-02T08:01:22;12.15;;;6.93;;
28353;SDS011;15603;50.878;8.036;2023-02-02T08:03:52;14.13;;;6.97;;
28353;SDS011;15603;50.878;8.036;2023-02-02T08:06:25;20.88;;;5.78;;
28353;SDS011;15603;50.878;8.036;2023-02-02T08:08:54;10.95;;;6.45;;
28353;SDS011;15603;50.878;8.036;2023-02-02T08:11:21;10.75;;;6.00;;
28353;SDS011;15603;50.878;8.036;2023-02-02T08:13:50;11.60;;;5.60;;
28353;SDS011;15603;50.878;8.036;2023-02-02T08:16:19;15.20;;;6.75;;
28353;SDS011;15603;50.878;8.036;2023-02-02T08:18:47;14.10;;;6.65;;
28353;SDS011;15603;50.878;8.036;2023-02-02T08:21:15;17.50;;;6.90;;
28353;SDS011;15603;50.878;8.036;2023-02-02T08:23:43;18.65;;;6.90;;
28353;SDS011;15603;50.878;8.036;2023-02-02T08:26:21;23.95;;;7.78;;
28353;SDS011;15603;50.878;8.036;2023-02-02T08:28:51;16.17;;;6.57;;
28353;SDS011;15603;50.878;8.036;2023-02-02T08:33:52;13.88;;;7.07;;
28353;SDS011;15603;50.878;8.036;2023-02-02T08:38:54;17.20;;;7.18;;
28353;SDS011;15603;50.878;8.036;2023-02-02T08:41:22;20.25;;;8.65;;
28353;SDS011;15603;50.878;8.036;2023-02-02T08:43:50;21.40;;;8.68;;
28353;SDS011;15603;50.878;8.036;2023-02-02T08:46:17;17.95;;;8.93;;
28353;SDS011;15603;50.878;8.036;2023-02-02T08:48:47;19.02;;;7.53;;
28353;SDS011;15603;50.878;8.036;2023-02-02T08:51:15;12.77;;;7.18;;
28353;SDS011;15603;50.878;8.036;2023-02-02T08:53:44;13.05;;;6.88;;
28353;SDS011;15603;50.878;8.036;2023-02-02T08:56:13;12.38;;;6.93;;
28353;SDS011;15603;50.878;8.036;2023-02-02T08:58:46;12.70;;;6.50;;
28353;SDS011;15603;50.878;8.036;2023-02-02T09:01:19;14.07;;;6.68;;
28353;SDS011;15603;50.878;8.036;2023-02-02T09:03:46;17.40;;;6.55;;
28353;SDS011;15603;50.878;8.036;2023-02-02T09:06:14;11.55;;;5.65;;
28353;SDS011;15603;50.878;8.036;2023-02-02T09:08:43;9.40;;;5.45;;
28353;SDS011;15603;50.878;8.036;2023-02-02T09:11:12;10.60;;;5.07;;
28353;SDS011;15603;50.878;8.036;2023-02-02T09:13:41;11.18;;;5.43;;
28353;SDS011;15603;50.878;8.036;2023-02-02T09:16:13;17.13;;;5.40;;
28353;SDS011;15603;50.878;8.036;2023-02-02T09:18:43;14.55;;;5.25;;
28353;SDS011;15603;50.878;8.036;2023-02-02T09:21:12;12.63;;;5.65;;
28353;SDS011;15603;50.878;8.036;2023-02-02T09:23:41;10.32;;;4.78;;
28353;SDS011;15603;50.878;8.036;2023-02-02T09:26:11;12.48;;;4.78;;
28353;SDS011;15603;50.878;8.036;2023-02-02T09:28:40;11.45;;;5.55;;
28353;SDS011;15603;50.878;8.036;2023-02-02T09:31:09;9.43;;;5.38;;
28353;SDS011;15603;50.878;8.036;2023-02-02T09:33:38;12.30;;;4.40;;
28353;SDS011;15603;50.878;8.036;2023-02-02T09:36:06;8.00;;;5.07;;
28353;SDS011;15603;50.878;8.036;2023-02-02T09:38:41;11.00;;;3.97;;
28353;SDS011;15603;50.878;8.036;2023-02-02T09:41:11;10.70;;;4.95;;
28353;SDS011;15603;50.878;8.036;2023-02-02T09:44:50;12.52;;;4.50;;
28353;SDS011;15603;50.878;8.036;2023-02-02T09:57:49;8.18;;;3.80;;
28353;SDS011;15603;50.878;8.036;2023-02-02T10:02:47;8.73;;;3.13;;
28353;SDS011;15603;50.878;8.036;2023-02-02T10:05:19;7.13;;;3.28;;
28353;SDS011;15603;50.878;8.036;2023-02-02T10:07:54;8.65;;;3.30;;
28353;SDS011;15603;50.878;8.036;2023-02-02T10:10:26;6.75;;;3.20;;
28353;SDS011;15603;50.878;8.036;2023-02-02T10:13:15;7.03;;;3.20;;
28353;SDS011;15603;50.878;8.036;2023-02-02T10:15:53;6.07;;;2.35;;
28353;SDS011;15603;50.878;8.036;2023-02-02T10:21:30;4.85;;;2.47;;
28353;SDS011;15603;50.878;8.036;2023-02-02T10:24:04;6.60;;;2.75;;
28353;SDS011;15603;50.878;8.036;2023-02-02T10:26:45;6.70;;;2.85;;
28353;SDS011;15603;50.878;8.036;2023-02-02T10:29:31;6.70;;;2.88;;
28353;SDS011;15603;50.878;8.036;2023-02-02T10:32:25;5.05;;;2.17;;
28353;SDS011;15603;50.878;8.036;2023-02-02T10:41:00;4.38;;;2.92;;
28353;SDS011;15603;50.878;8.036;2023-02-02T10:43:38;3.38;;;2.58;;
28353;SDS011;15603;50.878;8.036;2023-02-02T10:46:37;5.85;;;3.13;;
28353;SDS011;15603;50.878;8.036;2023-02-02T10:51:40;10.23;;;3.20;;
28353;SDS011;15603;50.878;8.036;2023-02-02T10:54:19;9.32;;;2.88;;
28353;SDS011;15603;50.878;8.036;2023-02-02T10:56:55;5.18;;;2.40;;
28353;SDS011;15603;50.878;8.036;2023-02-02T10:59:29;6.15;;;2.30;;
28353;SDS011;15603;50.878;8.036;2023-02-02T11:01:58;3.88;;;2.10;;
28353;SDS011;15603;50.878;8.036;2023-02-02T11:04:41;3.75;;;2.40;;
28353;SDS011;15603;50.878;8.036;2023-02-02T11:07:26;4.43;;;2.33;;
28353;SDS011;15603;50.878;8.036;2023-02-02T11:09:55;3.00;;;2.13;;
28353;SDS011;15603;50.878;8.036;2023-02-02T11:12:41;4.55;;;2.13;;
28353;SDS011;15603;50.878;8.036;2023-02-02T11:15:26;6.30;;;1.70;;
28353;SDS011;15603;50.878;8.036;2023-02-02T11:17:55;4.35;;;1.30;;
28353;SDS011;15603;50.878;8.036;2023-02-02T11:20:32;2.58;;;1.67;;
28353;SDS011;15603;50.878;8.036;2023-02-02T11:23:01;6.40;;;1.95;;
28353;SDS011;15603;50.878;8.036;2023-02-02T11:25:33;4.18;;;2.00;;
28353;SDS011;15603;50.878;8.036;2023-02-02T11:28:08;3.55;;;1.60;;
28353;SDS011;15603;50.878;8.036;2023-02-02T11:30:47;5.32;;;2.00;;
28353;SDS011;15603;50.878;8.036;2023-02-02T11:33:19;4.30;;;1.90;;
28353;SDS011;15603;50.878;8.036;2023-02-02T11:35:54;9.27;;;1.92;;
28353;SDS011;15603;50.878;8.036;2023-02-02T11:38:44;2.85;;;1.77;;
28353;SDS011;15603;50.878;8.036;2023-02-02T11:41:11;7.50;;;2.20;;
28353;SDS011;15603;50.878;8.036;2023-02-02T11:43:47;3.85;;;2.40;;
28353;SDS011;15603;50.878;8.036;2023-02-02T11:46:23;7.13;;;2.53;;
28353;SDS011;15603;50.878;8.036;2023-02-02T11:49:02;8.07;;;3.13;;
28353;SDS011;15603;50.878;8.036;2023-02-02T11:51:34;5.65;;;2.88;;
28353;SDS011;15603;50.878;8.036;2023-02-02T11:54:21;4.45;;;2.85;;
28353;SDS011;15603;50.878;8.036;2023-02-02T11:56:55;5.35;;;2.80;;
28353;SDS011;15603;50.878;8.036;2023-02-02T12:07:37;18.52;;;6.43;;
28353;SDS011;15603;50.878;8.036;2023-02-02T12:10:12;7.50;;;4.35;;
28353;SDS011;15603;50.878;8.036;2023-02-02T12:24:15;11.30;;;5.95;;
28353;SDS011;15603;50.878;8.036;2023-02-02T12:26:57;12.45;;;6.07;;
28353;SDS011;15603;50.878;8.036;2023-02-02T12:29:38;14.38;;;6.68;;
28353;SDS011;15603;50.878;8.036;2023-02-02T12:38:06;16.60;;;6.60;;
28353;SDS011;15603;50.878;8.036;2023-02-02T12:43:41;16.63;;;7.20;;
28353;SDS011;15603;50.878;8.036;2023-02-02T12:46:17;13.93;;;7.72;;
28353;SDS011;15603;50.878;8.036;2023-02-02T12:52:43;22.35;;;8.18;;
28353;SDS011;15603;50.878;8.036;2023-02-02T13:05:58;21.05;;;8.00;;
28353;SDS011;15603;50.878;8.036;2023-02-02T13:11:08;19.25;;;8.80;;
28353;SDS011;15603;50.878;8.036;2023-02-02T13:14:05;25.98;;;9.18;;
28353;SDS011;15603;50.878;8.036;2023-02-02T13:16:38;24.80;;;9.38;;
28353;SDS011;15603;50.878;8.036;2023-02-02T13:19:25;25.48;;;9.27;;
28353;SDS011;15603;50.878;8.036;2023-02-02T13:21:59;27.27;;;9.88;;
28353;SDS011;15603;50.878;8.036;2023-02-02T13:24:29;29.33;;;8.85;;
28353;SDS011;15603;50.878;8.036;2023-02-02T13:27:00;25.33;;;9.27;;
28353;SDS011;15603;50.878;8.036;2023-02-02T13:29:34;24.00;;;8.85;;
28353;SDS011;15603;50.878;8.036;2023-02-02T13:32:16;24.05;;;9.50;;
28353;SDS011;15603;50.878;8.036;2023-02-02T13:34:57;25.65;;;9.48;;
28353;SDS011;15603;50.878;8.036;2023-02-02T13:46:20;23.13;;;9.70;;
28353;SDS011;15603;50.878;8.036;2023-02-02T13:49:03;27.30;;;10.40;;
28353;SDS011;15603;50.878;8.036;2023-02-02T13:51:44;27.10;;;9.85;;
28353;SDS011;15603;50.878;8.036;2023-02-02T13:57:16;35.78;;;10.02;;
28353;SDS011;15603;50.878;8.036;2023-02-02T14:05:26;21.40;;;9.75;;
28353;SDS011;15603;50.878;8.036;2023-02-02T14:10:37;23.45;;;9.50;;
28353;SDS011;15603;50.878;8.036;2023-02-02T14:15:59;24.92;;;9.70;;
28353;SDS011;15603;50.878;8.036;2023-02-02T14:24:01;18.10;;;9.00;;
28353;SDS011;15603;50.878;8.036;2023-02-02T14:26:41;15.82;;;9.73;;
28353;SDS011;15603;50.878;8.036;2023-02-02T14:34:37;17.95;;;8.90;;
28353;SDS011;15603;50.878;8.036;2023-02-02T14:53:48;28.80;;;10.57;;
28353;SDS011;15603;50.878;8.036;2023-02-02T14:56:18;29.25;;;11.65;;
28353;SDS011;15603;50.878;8.036;2023-02-02T14:59:03;18.65;;;10.60;;
28353;SDS011;15603;50.878;8.036;2023-02-02T15:01:32;23.35;;;12.50;;
28353;SDS011;15603;50.878;8.036;2023-02-02T15:06:43;25.63;;;12.18;;
28353;SDS011;15603;50.878;8.036;2023-02-02T15:20:18;20.23;;;10.43;;
28353;SDS011;15603;50.878;8.036;2023-02-02T15:22:51;28.42;;;12.45;;
28353;SDS011;15603;50.878;8.036;2023-02-02T15:25:22;21.05;;;9.82;;
28353;SDS011;15603;50.878;8.036;2023-02-02T15:27:54;28.05;;;12.40;;
28353;SDS011;15603;50.878;8.036;2023-02-02T15:30:42;28.38;;;10.57;;
28353;SDS011;15603;50.878;8.036;2023-02-02T15:33:16;21.13;;;10.50;;
28353;SDS011;15603;50.878;8.036;2023-02-02T15:35:56;27.25;;;12.48;;
28353;SDS011;15603;50.878;8.036;2023-02-02T15:38:31;23.55;;;10.52;;
28353;SDS011;15603;50.878;8.036;2023-02-02T15:41:05;22.40;;;11.63;;
28353;SDS011;15603;50.878;8.036;2023-02-02T15:43:38;21.98;;;12.25;;
28353;SDS011;15603;50.878;8.036;2023-02-02T15:46:08;23.50;;;10.95;;
28353;SDS011;15603;50.878;8.036;2023-02-02T15:51:06;19.88;;;10.55;;
28353;SDS011;15603;50.878;8.036;2023-02-02T15:58:51;34.28;;;14.18;;
28353;SDS011;15603;50.878;8.036;2023-02-02T16:01:21;25.90;;;14.18;;
28353;SDS011;15603;50.878;8.036;2023-02-02T16:03:58;31.42;;;13.75;;
28353;SDS011;15603;50.878;8.036;2023-02-02T16:06:45;27.20;;;14.70;;
28353;SDS011;15603;50.878;8.036;2023-02-02T16:09:25;29.13;;;14.70;;
28353;SDS011;15603;50.878;8.036;2023-02-02T16:11:56;25.80;;;14.35;;
28353;SDS011;15603;50.878;8.036;2023-02-02T16:14:23;27.50;;;14.88;;
28353;SDS011;15603;50.878;8.036;2023-02-02T16:16:50;25.73;;;13.82;;
28353;SDS011;15603;50.878;8.036;2023-02-02T16:19:22;30.00;;;14.20;;
28353;SDS011;15603;50.878;8.036;2023-02-02T16:21:52;35.10;;;13.77;;
28353;SDS011;15603;50.878;8.036;2023-02-02T16:24:25;34.33;;;14.45;;
28353;SDS011;15603;50.878;8.036;2023-02-02T16:26:57;29.20;;;14.52;;
28353;SDS011;15603;50.878;8.036;2023-02-02T16:29:26;33.97;;;14.98;;
28353;SDS011;15603;50.878;8.036;2023-02-02T16:31:54;27.38;;;12.95;;
28353;SDS011;15603;50.878;8.036;2023-02-02T16:34:44;22.83;;;11.43;;
28353;SDS011;15603;50.878;8.036;2023-02-02T16:37:15;29.02;;;12.77;;
28353;SDS011;15603;50.878;8.036;2023-02-02T16:39:48;37.67;;;13.13;;
28353;SDS011;15603;50.878;8.036;2023-02-02T16:42:22;31.33;;;12.48;;
28353;SDS011;15603;50.878;8.036;2023-02-02T16:44:57;26.95;;;11.73;;
28353;SDS011;15603;50.878;8.036;2023-02-02T16:49:53;27.63;;;11.27;;
28353;SDS011;15603;50.878;8.036;2023-02-02T16:52:33;24.85;;;9.77;;
28353;SDS011;15603;50.878;8.036;2023-02-02T16:55:15;17.13;;;9.52;;
28353;SDS011;15603;50.878;8.036;2023-02-02T16:57:44;20.38;;;10.88;;
28353;SDS011;15603;50.878;8.036;2023-02-02T17:00:22;42.05;;;11.85;;
28353;SDS011;15603;50.878;8.036;2023-02-02T17:03:06;27.20;;;9.50;;
28353;SDS011;15603;50.878;8.036;2023-02-02T17:05:50;18.50;;;9.75;;
28353;SDS011;15603;50.878;8.036;2023-02-02T17:08:25;16.30;;;8.13;;
28353;SDS011;15603;50.878;8.036;2023-02-02T17:11:00;31.13;;;11.90;;
28353;SDS011;15603;50.878;8.036;2023-02-02T17:13:33;24.88;;;9.05;;
28353;SDS011;15603;50.878;8.036;2023-02-02T17:16:02;17.85;;;8.93;;
28353;SDS011;15603;50.878;8.036;2023-02-02T17:18:29;22.05;;;9.93;;
28353;SDS011;15603;50.878;8.036;2023-02-02T17:20:57;17.65;;;9.20;;
28353;SDS011;15603;50.878;8.036;2023-02-02T17:23:30;21.73;;;9.23;;
28353;SDS011;15603;50.878;8.036;2023-02-02T17:25:58;20.15;;;8.60;;
28353;SDS011;15603;50.878;8.036;2023-02-02T17:28:25;20.33;;;8.80;;
28353;SDS011;15603;50.878;8.036;2023-02-02T17:30:59;15.60;;;8.13;;
28353;SDS011;15603;50.878;8.036;2023-02-02T17:33:29;17.77;;;8.07;;
28353;SDS011;15603;50.878;8.036;2023-02-02T17:36:00;14.52;;;7.28;;
28353;SDS011;15603;50.878;8.036;2023-02-02T17:38:27;20.73;;;7.93;;
28353;SDS011;15603;50.878;8.036;2023-02-02T17:40:55;21.13;;;7.93;;
28353;SDS011;15603;50.878;8.036;2023-02-02T17:45:55;15.50;;;6.38;;
28353;SDS011;15603;50.878;8.036;2023-02-02T17:48:22;15.20;;;7.70;;
28353;SDS011;15603;50.878;8.036;2023-02-02T17:50:49;21.95;;;7.55;;
28353;SDS011;15603;50.878;8.036;2023-02-02T17:53:18;16.38;;;8.05;;
28353;SDS011;15603;50.878;8.036;2023-02-02T17:55:46;24.27;;;7.30;;
28353;SDS011;15603;50.878;8.036;2023-02-02T17:58:15;15.77;;;6.70;;
28353;SDS011;15603;50.878;8.036;2023-02-02T18:00:44;15.00;;;6.38;;
28353;SDS011;15603;50.878;8.036;2023-02-02T18:03:17;20.40;;;7.95;;
28353;SDS011;15603;50.878;8.036;2023-02-02T18:05:48;23.33;;;7.65;;
28353;SDS011;15603;50.878;8.036;2023-02-02T18:08:15;21.60;;;7.00;;